createdAt,value
2023-05-09T00:00:47.053Z,100643.97
2023-05-09T00:03:15.026Z,100639.50
2023-05-09T00:05:44.756Z,100638.50
2023-05-09T00:08:12.421Z,100637.03
2023-05-09T00:10:40.514Z,100639.59
2023-05-09T00:13:08.360Z,100631.22
2023-05-09T00:15:36.182Z,100632.06
2023-05-09T00:18:03.812Z,100633.94
2023-05-09T00:20:33.928Z,100626.34
2023-05-09T00:23:03.564Z,100625.91
2023-05-09T00:25:31.535Z,100624.03
2023-05-09T00:27:59.290Z,100628.19
2023-05-09T00:30:27.818Z,100625.13
2023-05-09T00:32:55.592Z,100625.34
2023-05-09T00:35:23.729Z,100616.56
2023-05-09T00:37:52.412Z,100618.44
2023-05-09T00:40:25.143Z,100627.50
2023-05-09T00:42:53.747Z,100625.16
2023-05-09T00:45:22.555Z,100624.03
2023-05-09T00:47:52.993Z,100616.97
2023-05-09T00:50:21.440Z,100612.75
2023-05-09T00:52:53.379Z,100603.09
2023-05-09T00:55:23.940Z,100603.09
2023-05-09T00:57:51.861Z,100603.03
2023-05-09T01:00:20.157Z,100606.56
2023-05-09T01:02:50.589Z,100604.81
2023-05-09T01:05:19.001Z,100600.16
2023-05-09T01:07:53.963Z,100597.72
2023-05-09T01:10:32.780Z,100594.78
2023-05-09T01:13:06.153Z,100595.13
2023-05-09T01:15:40.990Z,100589.66
2023-05-09T01:18:14.590Z,100585.34
2023-05-09T01:20:46.201Z,100588.59
2023-05-09T01:23:36.061Z,100578.94
2023-05-09T01:26:06.578Z,100581.38
2023-05-09T01:28:56.650Z,100580.44
2023-05-09T01:31:27.598Z,100581.53
2023-05-09T01:34:00.394Z,100575.75
2023-05-09T01:36:31.155Z,100574.78
2023-05-09T01:39:00.574Z,100565.97
2023-05-09T01:41:32.624Z,100566.56
2023-05-09T01:44:04.416Z,100576.34
2023-05-09T01:46:35.216Z,100585.09
2023-05-09T01:49:04.969Z,100585.16
2023-05-09T01:51:34.672Z,100571.94
2023-05-09T01:54:02.956Z,100567.19
2023-05-09T01:56:33.389Z,100570.44
2023-05-09T01:59:03.394Z,100567.59
2023-05-09T02:01:33.419Z,100571.56
2023-05-09T02:04:03.939Z,100559.13
2023-05-09T02:06:33.051Z,100560.66
2023-05-09T02:09:02.955Z,100560.66
2023-05-09T02:11:30.739Z,100558.53
2023-05-09T02:13:58.497Z,100559.56
2023-05-09T02:16:26.565Z,100567.13
2023-05-09T02:18:55.885Z,100567.25
2023-05-09T02:21:23.647Z,100569.75
2023-05-09T02:23:51.578Z,100570.66
2023-05-09T02:26:19.903Z,100570.13
2023-05-09T02:28:48.406Z,100559.91
2023-05-09T02:31:19.839Z,100557.97
2023-05-09T02:33:48.810Z,100562.78
2023-05-09T02:36:19.172Z,100558.03
2023-05-09T02:38:47.266Z,100567.09
2023-05-09T02:41:15.479Z,100555.53
2023-05-09T02:43:43.481Z,100558.59
2023-05-09T02:46:11.870Z,100551.53
2023-05-09T02:48:39.635Z,100546.31
2023-05-09T02:51:08.175Z,100548.84
2023-05-09T02:53:37.294Z,100536.41
2023-05-09T02:56:05.382Z,100543.38
2023-05-09T02:58:33.126Z,100546.31
2023-05-09T03:01:01.066Z,100549.75
2023-05-09T03:03:29.801Z,100549.63
2023-05-09T03:05:57.761Z,100547.25
2023-05-09T03:08:25.792Z,100539.69
2023-05-09T03:10:55.137Z,100542.47
2023-05-09T03:13:23.762Z,100540.75
2023-05-09T03:15:51.806Z,100539.91
2023-05-09T03:18:20.860Z,100537.94
2023-05-09T03:20:48.755Z,100541.53
2023-05-09T03:23:17.913Z,100532.19
2023-05-09T03:25:45.653Z,100528.94
2023-05-09T03:28:14.977Z,100515.06
2023-05-09T03:30:43.019Z,100525.75
2023-05-09T03:33:14.128Z,100524.66
2023-05-09T03:35:42.086Z,100528.59
2023-05-09T03:38:11.009Z,100526.47
2023-05-09T03:40:38.782Z,100522.63
2023-05-09T03:43:10.345Z,100513.78
2023-05-09T03:45:39.478Z,100519.69
2023-05-09T03:48:09.797Z,100515.94
2023-05-09T03:50:42.040Z,100517.16
2023-05-09T03:53:10.774Z,100503.38
2023-05-09T03:55:39.963Z,100509.38
2023-05-09T03:58:10.098Z,100510.22
2023-05-09T04:00:42.205Z,100512.69
2023-05-09T04:03:16.154Z,100508.38
2023-05-09T04:05:47.311Z,100520.53
2023-05-09T04:08:27.948Z,100516.91
2023-05-09T04:10:55.676Z,100515.38
2023-05-09T04:13:25.877Z,100515.69
2023-05-09T04:15:55.162Z,100515.00
2023-05-09T04:18:23.902Z,100511.94
2023-05-09T04:20:51.627Z,100512.47
2023-05-09T04:23:20.337Z,100512.31
2023-05-09T04:25:51.403Z,100506.69
2023-05-09T04:28:20.994Z,100512.78
2023-05-09T04:30:49.039Z,100513.22
2023-05-09T04:33:18.681Z,100514.81
2023-05-09T04:35:47.050Z,100519.75
2023-05-09T04:38:15.149Z,100510.34
2023-05-09T04:40:43.456Z,100510.72
2023-05-09T04:43:11.407Z,100504.72
2023-05-09T04:45:39.304Z,100495.28
2023-05-09T04:48:07.420Z,100497.72
2023-05-09T04:50:36.591Z,100492.03
2023-05-09T04:53:04.472Z,100494.16
2023-05-09T04:55:32.230Z,100496.28
2023-05-09T04:58:00.162Z,100493.09
2023-05-09T05:00:27.939Z,100492.63
2023-05-09T05:02:56.130Z,100490.50
2023-05-09T05:05:26.581Z,100485.97
2023-05-09T05:07:56.889Z,100479.63
2023-05-09T05:10:30.202Z,100480.13
2023-05-09T05:13:05.829Z,100476.41
2023-05-09T05:15:35.494Z,100475.31
2023-05-09T05:18:05.465Z,100468.00
2023-05-09T05:20:36.220Z,100467.66
2023-05-09T05:23:06.208Z,100465.63
2023-05-09T05:25:33.990Z,100456.53
2023-05-09T05:28:02.524Z,100451.03
2023-05-09T05:30:32.807Z,100450.50
2023-05-09T05:33:02.390Z,100456.03
2023-05-09T05:35:30.637Z,100458.41
2023-05-09T05:37:58.965Z,100462.66
2023-05-09T05:40:28.746Z,100463.66
2023-05-09T05:42:57.465Z,100470.56
2023-05-09T05:45:25.884Z,100455.25
2023-05-09T05:47:56.610Z,100457.34
2023-05-09T05:50:25.294Z,100461.47
2023-05-09T05:52:54.175Z,100464.94
2023-05-09T05:55:22.006Z,100465.50
2023-05-09T05:57:51.795Z,100461.69
2023-05-09T06:00:20.756Z,100455.78
2023-05-09T06:02:55.487Z,100454.41
2023-05-09T06:05:29.808Z,100450.75
2023-05-09T06:07:57.613Z,100454.78
2023-05-09T06:10:25.877Z,100443.19
2023-05-09T06:12:55.131Z,100445.25
2023-05-09T06:15:23.657Z,100436.75
2023-05-09T06:17:52.037Z,100438.25
2023-05-09T06:20:20.000Z,100435.28
2023-05-09T06:22:48.470Z,100428.81
2023-05-09T06:25:16.727Z,100429.47
2023-05-09T06:27:44.789Z,100431.03
2023-05-09T06:30:25.328Z,100437.41
2023-05-09T06:32:54.351Z,100429.47
2023-05-09T06:35:22.405Z,100435.38
2023-05-09T06:37:50.423Z,100431.63
2023-05-09T06:40:18.431Z,100429.06
2023-05-09T06:42:46.693Z,100422.25
2023-05-09T06:45:17.365Z,100419.81
2023-05-09T06:47:45.708Z,100411.03
2023-05-09T06:50:18.705Z,100412.69
2023-05-09T06:52:46.689Z,100404.75
2023-05-09T06:55:15.692Z,100399.09
2023-05-09T06:57:46.209Z,100403.53
2023-05-09T07:00:15.739Z,100399.00
2023-05-09T07:02:44.868Z,100400.72
2023-05-09T07:05:16.253Z,100401.16
2023-05-09T07:07:44.193Z,100396.19
2023-05-09T07:10:12.731Z,100395.25
2023-05-09T07:12:41.737Z,100395.81
2023-05-09T07:15:11.123Z,100395.34
2023-05-09T07:17:39.360Z,100384.13
2023-05-09T07:20:09.623Z,100370.66
2023-05-09T07:22:38.439Z,100377.94
2023-05-09T07:25:08.848Z,100372.84
2023-05-09T07:27:36.987Z,100372.19
2023-05-09T07:30:06.049Z,100370.50
2023-05-09T07:32:34.652Z,100363.66
2023-05-09T07:35:03.041Z,100363.97
2023-05-09T07:37:32.414Z,100354.88
2023-05-09T07:40:00.480Z,100350.38
2023-05-09T07:42:28.357Z,100349.81
2023-05-09T07:44:56.621Z,100345.22
2023-05-09T07:47:24.684Z,100338.72
2023-05-09T07:49:52.646Z,100340.22
2023-05-09T07:52:20.608Z,100339.44
2023-05-09T07:54:49.752Z,100342.38
2023-05-09T07:57:17.907Z,100343.22
2023-05-09T07:59:45.702Z,100332.31
2023-05-09T08:02:13.699Z,100330.53
2023-05-09T08:04:42.353Z,100323.63
2023-05-09T08:07:11.626Z,100314.63
2023-05-09T08:09:39.311Z,100314.28
2023-05-09T08:12:09.196Z,100312.53
2023-05-09T08:14:37.201Z,100306.88
2023-05-09T08:17:05.390Z,100296.00
2023-05-09T08:19:33.115Z,100292.94
2023-05-09T08:22:01.377Z,100293.03
2023-05-09T08:24:29.383Z,100287.56
2023-05-09T08:26:57.183Z,100285.38
2023-05-09T08:29:26.488Z,100290.72
2023-05-09T08:31:54.478Z,100291.69
2023-05-09T08:34:23.061Z,100293.50
2023-05-09T08:36:50.792Z,100289.16
2023-05-09T08:39:19.086Z,100272.88
2023-05-09T08:41:48.009Z,100269.78
2023-05-09T08:44:15.839Z,100263.00
2023-05-09T08:46:47.309Z,100266.13
2023-05-09T08:49:17.383Z,100267.53
2023-05-09T08:51:47.880Z,100264.81
2023-05-09T08:54:16.462Z,100255.63
2023-05-09T08:56:44.194Z,100259.09
2023-05-09T08:59:11.882Z,100258.91
2023-05-09T09:01:40.230Z,100255.56
2023-05-09T09:04:09.600Z,100263.53
2023-05-09T09:06:38.875Z,100254.41
2023-05-09T09:09:08.479Z,100260.25
2023-05-09T09:11:37.200Z,100247.09
2023-05-09T09:14:11.875Z,100246.19
2023-05-09T09:16:41.083Z,100242.72
2023-05-09T09:19:13.494Z,100247.63
2023-05-09T09:21:43.640Z,100245.44
2023-05-09T09:24:14.792Z,100235.31
2023-05-09T09:26:49.884Z,100239.03
2023-05-09T09:29:18.525Z,100234.22
2023-05-09T09:31:47.929Z,100222.97
2023-05-09T09:34:22.876Z,100217.31
2023-05-09T09:36:51.377Z,100214.03
2023-05-09T09:39:19.561Z,100214.28
2023-05-09T09:41:47.394Z,100212.31
2023-05-09T09:44:16.699Z,100202.97
2023-05-09T09:46:45.767Z,100204.75
2023-05-09T09:49:15.477Z,100203.28
2023-05-09T09:51:45.374Z,100193.44
2023-05-09T09:54:14.018Z,100198.47
2023-05-09T09:56:43.763Z,100189.53
2023-05-09T09:59:13.272Z,100184.03
2023-05-09T10:01:56.336Z,100192.28
2023-05-09T10:04:24.719Z,100182.22
2023-05-09T10:06:56.098Z,100184.38
2023-05-09T10:09:24.826Z,100177.16
2023-05-09T10:11:54.363Z,100174.28
2023-05-09T10:14:25.424Z,100176.22
2023-05-09T10:16:57.408Z,100160.91
2023-05-09T10:19:52.013Z,100146.06
2023-05-09T10:22:22.318Z,100143.19
2023-05-09T10:25:02.323Z,100133.19
2023-05-09T10:27:32.737Z,100131.25
2023-05-09T10:30:06.020Z,100126.13
2023-05-09T10:32:42.838Z,100120.84
2023-05-09T10:35:13.906Z,100115.16
2023-05-09T10:37:43.561Z,100099.09
2023-05-09T10:40:15.291Z,100091.94
2023-05-09T10:42:44.000Z,100093.88
2023-05-09T10:45:14.254Z,100097.72
2023-05-09T10:47:44.394Z,100096.91
2023-05-09T10:50:13.817Z,100092.63
2023-05-09T10:53:11.039Z,100089.06
2023-05-09T10:55:40.742Z,100078.56
2023-05-09T10:58:22.847Z,100072.75
2023-05-09T11:00:52.111Z,100063.91
2023-05-09T11:03:20.329Z,100054.50
2023-05-09T11:05:50.117Z,100056.94
2023-05-09T11:08:25.142Z,100046.56
2023-05-09T11:10:53.933Z,100036.72
2023-05-09T11:13:24.588Z,100028.78
2023-05-09T11:16:19.847Z,100018.75
2023-05-09T11:18:53.038Z,100024.91
2023-05-09T11:21:22.386Z,100014.31
2023-05-09T11:23:53.821Z,100019.31
2023-05-09T11:26:24.429Z,100018.91
2023-05-09T11:28:56.835Z,100015.72
2023-05-09T11:31:25.557Z,100013.06
2023-05-09T11:33:58.252Z,100014.72
2023-05-09T11:36:31.843Z,100008.31
2023-05-09T11:39:07.127Z,100009.44
2023-05-09T11:41:43.941Z,100002.13
2023-05-09T11:44:17.568Z,99994.00
2023-05-09T11:46:45.808Z,99993.13
2023-05-09T11:49:14.048Z,99995.41
2023-05-09T11:51:42.477Z,99992.84
2023-05-09T11:54:14.825Z,99992.25
2023-05-09T11:56:42.918Z,99982.38
2023-05-09T11:59:13.181Z,99989.25
2023-05-09T12:01:40.994Z,99980.19
2023-05-09T12:04:09.099Z,99973.41
2023-05-09T12:06:37.630Z,99981.03
2023-05-09T12:09:06.573Z,99975.88
2023-05-09T12:11:37.216Z,99969.75
2023-05-09T12:14:05.455Z,99960.59
2023-05-09T12:16:33.361Z,99963.97
2023-05-09T12:19:01.514Z,99953.97
2023-05-09T12:21:29.615Z,99952.41
2023-05-09T12:23:57.649Z,99949.06
2023-05-09T12:26:25.535Z,99942.44
2023-05-09T12:28:55.658Z,99933.47
2023-05-09T12:31:24.096Z,99932.22
2023-05-09T12:33:52.470Z,99917.69
2023-05-09T12:36:20.618Z,99926.59
2023-05-09T12:38:55.322Z,99917.13
2023-05-09T12:41:37.105Z,99912.41
2023-05-09T12:44:11.205Z,99899.16
2023-05-09T12:46:39.421Z,99908.31
2023-05-09T12:49:07.094Z,99904.00
2023-05-09T12:51:34.744Z,99907.53
2023-05-09T12:54:04.726Z,99900.78
2023-05-09T12:56:36.494Z,99895.38
2023-05-09T12:59:04.240Z,99888.81
2023-05-09T13:01:33.477Z,99894.22
2023-05-09T13:04:03.632Z,99893.78
2023-05-09T13:06:31.709Z,99895.13
2023-05-09T13:09:01.560Z,99887.38
2023-05-09T13:11:30.309Z,99885.22
2023-05-09T13:13:58.471Z,99872.59
2023-05-09T13:16:26.766Z,99874.28
2023-05-09T13:18:56.201Z,99870.00
2023-05-09T13:21:23.988Z,99862.94
2023-05-09T13:23:52.299Z,99865.41
2023-05-09T13:26:21.414Z,99863.63
2023-05-09T13:28:49.374Z,99856.44
2023-05-09T13:31:17.793Z,99849.66
2023-05-09T13:33:45.580Z,99840.09
2023-05-09T13:36:15.143Z,99836.66
2023-05-09T13:38:43.643Z,99836.38
2023-05-09T13:41:11.333Z,99825.13
2023-05-09T13:43:42.485Z,99825.13
2023-05-09T13:46:10.418Z,99821.22
2023-05-09T13:48:38.114Z,99816.63
2023-05-09T13:51:07.791Z,99818.56
2023-05-09T13:53:38.981Z,99812.75
2023-05-09T13:56:09.306Z,99802.47
2023-05-09T13:58:37.276Z,99804.94
2023-05-09T14:01:05.168Z,99796.47
2023-05-09T14:03:32.905Z,99797.16
2023-05-09T14:06:00.707Z,99795.91
2023-05-09T14:08:29.631Z,99795.91
2023-05-09T14:10:59.003Z,99791.44
2023-05-09T14:13:28.657Z,99785.06
2023-05-09T14:15:56.433Z,99777.84
2023-05-09T14:18:25.064Z,99787.84
2023-05-09T14:20:53.658Z,99767.41
2023-05-09T14:23:22.305Z,99766.72
2023-05-09T14:25:50.626Z,99764.63
2023-05-09T14:28:19.750Z,99763.81
2023-05-09T14:30:48.097Z,99760.03
2023-05-09T14:33:15.824Z,99757.38
2023-05-09T14:35:43.602Z,99759.75
2023-05-09T14:38:12.637Z,99752.78
2023-05-09T14:40:40.408Z,99743.59
2023-05-09T14:43:09.470Z,99752.06
2023-05-09T14:45:39.358Z,99748.16
2023-05-09T14:48:07.479Z,99743.00
2023-05-09T14:50:36.263Z,99734.94
2023-05-09T14:53:03.955Z,99736.03
2023-05-09T14:55:32.591Z,99733.00
2023-05-09T14:58:00.526Z,99727.97
2023-05-09T15:00:28.966Z,99729.06
2023-05-09T15:02:58.864Z,99723.38
2023-05-09T15:05:26.651Z,99715.34
2023-05-09T15:07:54.632Z,99705.47
2023-05-09T15:10:22.891Z,99705.50
2023-05-09T15:12:51.457Z,99696.34
2023-05-09T15:15:20.790Z,99693.84
2023-05-09T15:17:48.776Z,99698.03
2023-05-09T15:20:19.185Z,99689.56
2023-05-09T15:22:48.862Z,99685.91
2023-05-09T15:25:17.309Z,99685.25
2023-05-09T15:27:45.280Z,99673.97
2023-05-09T15:30:13.994Z,99675.94
2023-05-09T15:32:42.015Z,99674.81
2023-05-09T15:35:10.553Z,99669.69
2023-05-09T15:37:41.661Z,99669.25
2023-05-09T15:40:10.537Z,99665.09
2023-05-09T15:42:40.685Z,99667.72
2023-05-09T15:45:09.878Z,99661.03
2023-05-09T15:47:38.215Z,99660.03
2023-05-09T15:50:07.023Z,99663.53
2023-05-09T15:52:35.047Z,99656.56
2023-05-09T15:55:04.452Z,99661.84
2023-05-09T15:57:32.218Z,99657.28
2023-05-09T16:00:00.025Z,99657.28
2023-05-09T16:02:28.289Z,99657.41
2023-05-09T16:04:56.149Z,99654.66
2023-05-09T16:07:24.030Z,99650.50
2023-05-09T16:09:51.657Z,99645.91
2023-05-09T16:12:21.053Z,99645.78
2023-05-09T16:14:48.807Z,99642.47
2023-05-09T16:17:16.484Z,99637.06
2023-05-09T16:19:44.185Z,99635.38
2023-05-09T16:22:11.878Z,99636.06
2023-05-09T16:24:39.765Z,99638.84
2023-05-09T16:27:07.423Z,99633.16
2023-05-09T16:29:36.570Z,99634.69
2023-05-09T16:32:04.359Z,99631.59
2023-05-09T16:34:32.089Z,99623.25
2023-05-09T16:37:00.589Z,99627.44
2023-05-09T16:39:28.793Z,99626.19
2023-05-09T16:41:57.155Z,99624.09
2023-05-09T16:44:26.020Z,99626.69
2023-05-09T16:46:55.455Z,99626.69
2023-05-09T16:49:23.249Z,99622.66
2023-05-09T16:51:51.447Z,99626.25
2023-05-09T16:54:19.177Z,99624.44
2023-05-09T16:56:46.906Z,99619.44
2023-05-09T16:59:15.089Z,99616.47
2023-05-09T17:01:43.296Z,99616.22
2023-05-09T17:04:12.594Z,99618.25
2023-05-09T17:06:40.676Z,99617.81
2023-05-09T17:09:09.206Z,99610.06
2023-05-09T17:11:36.896Z,99608.00
2023-05-09T17:14:04.700Z,99615.34
2023-05-09T17:16:32.510Z,99616.69
2023-05-09T17:19:00.587Z,99616.84
2023-05-09T17:21:29.764Z,99619.88
2023-05-09T17:23:58.860Z,99623.25
2023-05-09T17:26:26.721Z,99622.34
2023-05-09T17:28:54.516Z,99621.56
2023-05-09T17:31:22.938Z,99622.22
2023-05-09T17:33:50.928Z,99627.97
2023-05-09T17:36:18.598Z,99636.66
2023-05-09T17:38:47.799Z,99629.72
2023-05-09T17:41:15.542Z,99620.63
2023-05-09T17:43:43.234Z,99619.88
2023-05-09T17:46:11.048Z,99625.25
2023-05-09T17:48:38.982Z,99627.06
2023-05-09T17:51:07.038Z,99629.59
2023-05-09T17:53:34.958Z,99632.56
2023-05-09T17:56:07.105Z,99633.47
2023-05-09T17:58:34.980Z,99640.75
2023-05-09T18:01:03.014Z,99640.53
2023-05-09T18:03:32.251Z,99636.34
2023-05-09T18:06:01.757Z,99640.28
2023-05-09T18:08:30.043Z,99637.91
2023-05-09T18:10:58.024Z,99641.63
2023-05-09T18:13:27.654Z,99640.19
2023-05-09T18:15:59.659Z,99640.41
2023-05-09T18:18:28.339Z,99647.00
2023-05-09T18:20:56.765Z,99656.66
2023-05-09T18:23:26.446Z,99656.84
2023-05-09T18:25:55.142Z,99657.09
2023-05-09T18:28:25.543Z,99655.91
2023-05-09T18:30:56.647Z,99652.31
2023-05-09T18:33:25.780Z,99648.63
2023-05-09T18:35:53.888Z,99660.06
2023-05-09T18:38:21.802Z,99664.72
2023-05-09T18:40:51.690Z,99671.03
2023-05-09T18:43:20.737Z,99668.88
2023-05-09T18:45:49.471Z,99670.06
2023-05-09T18:48:18.890Z,99668.03
2023-05-09T18:50:47.123Z,99675.28
2023-05-09T18:53:14.970Z,99663.34
2023-05-09T18:55:42.805Z,99657.84
2023-05-09T18:58:11.169Z,99651.78
2023-05-09T19:00:39.438Z,99659.75
2023-05-09T19:03:07.766Z,99658.91
2023-05-09T19:05:38.626Z,99659.38
2023-05-09T19:08:07.575Z,99656.00
2023-05-09T19:10:37.329Z,99657.69
2023-05-09T19:13:06.046Z,99658.63
2023-05-09T19:15:34.471Z,99653.63
2023-05-09T19:18:03.109Z,99657.94
2023-05-09T19:20:31.687Z,99658.13
2023-05-09T19:23:02.846Z,99665.19
2023-05-09T19:25:33.698Z,99661.13
2023-05-09T19:28:01.700Z,99665.28
2023-05-09T19:30:29.463Z,99661.81
2023-05-09T19:32:57.201Z,99670.88
2023-05-09T19:35:25.290Z,99671.81
2023-05-09T19:37:53.264Z,99668.72
2023-05-09T19:40:22.597Z,99666.81
2023-05-09T19:42:50.825Z,99663.78
2023-05-09T19:45:18.627Z,99664.94
2023-05-09T19:47:46.731Z,99666.63
2023-05-09T19:50:14.850Z,99671.88
2023-05-09T19:52:43.159Z,99671.97
2023-05-09T19:55:12.491Z,99670.75
2023-05-09T19:57:41.581Z,99670.75
2023-05-09T20:00:10.607Z,99677.03
2023-05-09T20:02:40.054Z,99671.19
2023-05-09T20:05:09.236Z,99680.72
2023-05-09T20:07:37.207Z,99681.16
2023-05-09T20:10:06.171Z,99681.38
2023-05-09T20:12:34.456Z,99682.31
2023-05-09T20:15:04.051Z,99679.50
2023-05-09T20:17:32.223Z,99681.38
2023-05-09T20:20:00.191Z,99680.97
2023-05-09T20:22:27.958Z,99678.53
2023-05-09T20:24:56.030Z,99681.59
2023-05-09T20:27:23.709Z,99672.91
2023-05-09T20:29:51.872Z,99679.09
2023-05-09T20:32:22.264Z,99672.06
2023-05-09T20:34:50.020Z,99671.22
2023-05-09T20:37:17.736Z,99674.09
2023-05-09T20:39:45.479Z,99669.59
2023-05-09T20:42:14.081Z,99670.38
2023-05-09T20:44:42.198Z,99670.38
2023-05-09T20:47:10.138Z,99668.59
2023-05-09T20:49:40.037Z,99668.75
2023-05-09T20:52:07.773Z,99665.38
2023-05-09T20:54:35.479Z,99663.28
2023-05-09T20:57:03.091Z,99662.53
2023-05-09T20:59:31.314Z,99659.47
2023-05-09T21:01:59.052Z,99658.88
2023-05-09T21:04:26.840Z,99655.75
2023-05-09T21:06:55.914Z,99656.81
2023-05-09T21:09:23.708Z,99647.38
2023-05-09T21:11:51.380Z,99652.94
2023-05-09T21:14:20.472Z,99650.44
2023-05-09T21:16:49.050Z,99650.44
2023-05-09T21:19:17.274Z,99648.88
2023-05-09T21:21:44.929Z,99648.66
2023-05-09T21:24:14.082Z,99644.88
2023-05-09T21:26:42.386Z,99651.06
2023-05-09T21:29:10.111Z,99647.81
2023-05-09T21:31:38.424Z,99648.09
2023-05-09T21:34:09.885Z,99648.66
2023-05-09T21:36:38.303Z,99638.19
2023-05-09T21:39:09.627Z,99640.69
2023-05-09T21:41:40.212Z,99646.75
2023-05-09T21:44:08.336Z,99635.94
2023-05-09T21:46:36.312Z,99644.03
2023-05-09T21:49:04.538Z,99640.84
2023-05-09T21:51:33.436Z,99643.28
2023-05-09T21:54:01.828Z,99641.97
2023-05-09T21:56:29.866Z,99650.78
2023-05-09T21:58:58.854Z,99646.59
2023-05-09T22:01:26.590Z,99642.41
2023-05-09T22:03:54.560Z,99652.88
2023-05-09T22:06:22.651Z,99658.66
2023-05-09T22:08:51.043Z,99651.66
2023-05-09T22:11:19.084Z,99655.72
2023-05-09T22:13:46.716Z,99658.88
2023-05-09T22:16:16.087Z,99654.91
2023-05-09T22:18:43.895Z,99664.38
2023-05-09T22:21:11.792Z,99661.31
2023-05-09T22:23:39.711Z,99664.59
2023-05-09T22:26:07.795Z,99661.16
2023-05-09T22:28:35.476Z,99664.63
2023-05-09T22:31:03.567Z,99665.22
2023-05-09T22:33:33.085Z,99664.00
2023-05-09T22:36:01.092Z,99671.72
2023-05-09T22:38:29.080Z,99670.78
2023-05-09T22:40:56.777Z,99668.03
2023-05-09T22:43:28.745Z,99664.06
2023-05-09T22:46:01.728Z,99667.63
2023-05-09T22:48:29.702Z,99665.63
2023-05-09T22:50:58.787Z,99665.31
2023-05-09T22:53:28.487Z,99674.22
2023-05-09T22:55:56.174Z,99669.28
2023-05-09T22:58:24.186Z,99674.31
2023-05-09T23:00:52.405Z,99679.41
2023-05-09T23:03:20.415Z,99673.56
2023-05-09T23:05:49.713Z,99681.19
2023-05-09T23:08:19.036Z,99680.25
2023-05-09T23:10:46.730Z,99685.34
2023-05-09T23:13:14.948Z,99678.97
2023-05-09T23:15:42.904Z,99683.56
2023-05-09T23:18:10.842Z,99686.94
2023-05-09T23:20:38.620Z,99682.53
2023-05-09T23:23:06.424Z,99684.50
2023-05-09T23:25:35.674Z,99685.56
2023-05-09T23:28:03.520Z,99691.41
2023-05-09T23:30:31.433Z,99688.16
2023-05-09T23:32:59.186Z,99692.56
2023-05-09T23:35:27.667Z,99693.47
2023-05-09T23:37:55.515Z,99692.03
2023-05-09T23:40:23.597Z,99700.41
2023-05-09T23:42:53.719Z,99700.59
2023-05-09T23:45:21.843Z,99698.84
2023-05-09T23:47:49.723Z,99707.81
2023-05-09T23:50:17.900Z,99709.13
2023-05-09T23:52:49.125Z,99711.34
2023-05-09T23:55:17.747Z,99701.75
2023-05-09T23:57:45.573Z,99705.50
